sensor_id;sensor_type;location;lat;lon;timestamp;P1;durP1;ratioP1;P2;durP2;ratioP2
27953;SDS011;15290;48.148;17.106;2022-12-18T00:00:45;19.48;;;10.48;;
27953;SDS011;15290;48.148;17.106;2022-12-18T00:03:34;22.00;;;11.07;;
27953;SDS011;15290;48.148;17.106;2022-12-18T00:06:01;23.60;;;11.65;;
27953;SDS011;15290;48.148;17.106;2022-12-18T00:08:27;16.00;;;8.30;;
27953;SDS011;15290;48.148;17.106;2022-12-18T00:10:53;16.55;;;9.13;;
27953;SDS011;15290;48.148;17.106;2022-12-18T00:13:19;18.02;;;8.70;;
27953;SDS011;15290;48.148;17.106;2022-12-18T00:15:45;21.65;;;10.98;;
27953;SDS011;15290;48.148;17.106;2022-12-18T00:18:10;21.52;;;11.23;;
27953;SDS011;15290;48.148;17.106;2022-12-18T00:20:39;19.83;;;10.75;;
27953;SDS011;15290;48.148;17.106;2022-12-18T00:23:05;22.00;;;11.20;;
27953;SDS011;15290;48.148;17.106;2022-12-18T00:25:32;25.73;;;13.10;;
27953;SDS011;15290;48.148;17.106;2022-12-18T00:27:59;28.25;;;13.38;;
27953;SDS011;15290;48.148;17.106;2022-12-18T00:30:25;31.50;;;14.77;;
27953;SDS011;15290;48.148;17.106;2022-12-18T00:32:51;29.35;;;14.02;;
27953;SDS011;15290;48.148;17.106;2022-12-18T00:35:17;26.38;;;14.85;;
27953;SDS011;15290;48.148;17.106;2022-12-18T00:37:43;31.02;;;15.25;;
27953;SDS011;15290;48.148;17.106;2022-12-18T00:40:09;31.75;;;14.75;;
27953;SDS011;15290;48.148;17.106;2022-12-18T00:42:36;25.95;;;13.95;;
27953;SDS011;15290;48.148;17.106;2022-12-18T00:45:24;31.05;;;14.60;;
27953;SDS011;15290;48.148;17.106;2022-12-18T00:47:55;24.20;;;13.52;;
27953;SDS011;15290;48.148;17.106;2022-12-18T00:50:21;29.42;;;15.70;;
27953;SDS011;15290;48.148;17.106;2022-12-18T00:52:48;33.10;;;16.75;;
27953;SDS011;15290;48.148;17.106;2022-12-18T00:55:14;27.90;;;13.75;;
27953;SDS011;15290;48.148;17.106;2022-12-18T00:57:40;29.40;;;15.43;;
27953;SDS011;15290;48.148;17.106;2022-12-18T01:00:07;24.15;;;13.80;;
27953;SDS011;15290;48.148;17.106;2022-12-18T01:02:35;24.58;;;11.95;;
27953;SDS011;15290;48.148;17.106;2022-12-18T01:05:01;28.55;;;14.88;;
27953;SDS011;15290;48.148;17.106;2022-12-18T01:07:26;26.75;;;13.80;;
27953;SDS011;15290;48.148;17.106;2022-12-18T01:09:52;27.02;;;14.57;;
27953;SDS011;15290;48.148;17.106;2022-12-18T01:12:18;25.92;;;14.13;;
27953;SDS011;15290;48.148;17.106;2022-12-18T01:14:45;27.17;;;13.07;;
27953;SDS011;15290;48.148;17.106;2022-12-18T01:17:10;25.63;;;13.10;;
27953;SDS011;15290;48.148;17.106;2022-12-18T01:19:36;23.02;;;11.68;;
27953;SDS011;15290;48.148;17.106;2022-12-18T01:22:02;21.02;;;10.32;;
27953;SDS011;15290;48.148;17.106;2022-12-18T01:24:28;20.98;;;11.32;;
27953;SDS011;15290;48.148;17.106;2022-12-18T01:26:53;24.00;;;12.60;;
27953;SDS011;15290;48.148;17.106;2022-12-18T01:29:19;26.48;;;14.10;;
27953;SDS011;15290;48.148;17.106;2022-12-18T01:31:45;26.20;;;13.85;;
27953;SDS011;15290;48.148;17.106;2022-12-18T01:34:12;28.25;;;15.75;;
27953;SDS011;15290;48.148;17.106;2022-12-18T01:36:38;27.52;;;13.38;;
27953;SDS011;15290;48.148;17.106;2022-12-18T01:39:10;26.00;;;14.13;;
27953;SDS011;15290;48.148;17.106;2022-12-18T01:41:37;26.10;;;14.23;;
27953;SDS011;15290;48.148;17.106;2022-12-18T01:47:19;29.30;;;14.88;;
27953;SDS011;15290;48.148;17.106;2022-12-18T01:49:48;32.60;;;15.25;;
27953;SDS011;15290;48.148;17.106;2022-12-18T01:52:15;30.83;;;15.70;;
27953;SDS011;15290;48.148;17.106;2022-12-18T01:54:41;31.42;;;16.10;;
27953;SDS011;15290;48.148;17.106;2022-12-18T01:57:08;33.45;;;16.88;;
27953;SDS011;15290;48.148;17.106;2022-12-18T01:59:37;32.25;;;17.13;;
27953;SDS011;15290;48.148;17.106;2022-12-18T02:02:06;32.72;;;16.60;;
27953;SDS011;15290;48.148;17.106;2022-12-18T02:04:32;32.90;;;16.48;;
27953;SDS011;15290;48.148;17.106;2022-12-18T02:07:19;29.15;;;15.10;;
27953;SDS011;15290;48.148;17.106;2022-12-18T02:09:56;31.33;;;17.58;;
27953;SDS011;15290;48.148;17.106;2022-12-18T02:13:11;34.03;;;17.73;;
27953;SDS011;15290;48.148;17.106;2022-12-18T02:15:44;33.30;;;16.77;;
27953;SDS011;15290;48.148;17.106;2022-12-18T02:18:21;29.67;;;15.82;;
27953;SDS011;15290;48.148;17.106;2022-12-18T02:24:26;35.95;;;18.30;;
27953;SDS011;15290;48.148;17.106;2022-12-18T02:26:36;29.67;;;16.30;;
27953;SDS011;15290;48.148;17.106;2022-12-18T02:29:18;28.92;;;15.65;;
27953;SDS011;15290;48.148;17.106;2022-12-18T02:31:50;29.95;;;16.27;;
27953;SDS011;15290;48.148;17.106;2022-12-18T02:34:18;30.17;;;15.95;;
27953;SDS011;15290;48.148;17.106;2022-12-18T02:36:47;32.55;;;17.40;;
27953;SDS011;15290;48.148;17.106;2022-12-18T02:39:14;31.30;;;17.67;;
27953;SDS011;15290;48.148;17.106;2022-12-18T02:41:41;32.67;;;18.05;;
27953;SDS011;15290;48.148;17.106;2022-12-18T02:44:10;30.33;;;17.58;;
27953;SDS011;15290;48.148;17.106;2022-12-18T02:46:41;34.35;;;16.98;;
27953;SDS011;15290;48.148;17.106;2022-12-18T02:49:18;35.53;;;17.55;;
27953;SDS011;15290;48.148;17.106;2022-12-18T03:00:30;33.40;;;17.25;;
27953;SDS011;15290;48.148;17.106;2022-12-18T03:03:06;33.80;;;17.73;;
27953;SDS011;15290;48.148;17.106;2022-12-18T03:08:26;35.50;;;18.30;;
27953;SDS011;15290;48.148;17.106;2022-12-18T03:10:55;36.38;;;17.85;;
27953;SDS011;15290;48.148;17.106;2022-12-18T03:13:33;32.00;;;16.95;;
27953;SDS011;15290;48.148;17.106;2022-12-18T03:16:01;38.33;;;18.30;;
27953;SDS011;15290;48.148;17.106;2022-12-18T03:18:34;39.25;;;19.67;;
27953;SDS011;15290;48.148;17.106;2022-12-18T03:21:02;36.65;;;18.00;;
27953;SDS011;15290;48.148;17.106;2022-12-18T03:23:36;34.08;;;18.42;;
27953;SDS011;15290;48.148;17.106;2022-12-18T03:26:06;38.03;;;18.67;;
27953;SDS011;15290;48.148;17.106;2022-12-18T03:28:35;37.60;;;17.60;;
27953;SDS011;15290;48.148;17.106;2022-12-18T03:31:04;39.70;;;19.45;;
27953;SDS011;15290;48.148;17.106;2022-12-18T03:36:20;37.65;;;18.17;;
27953;SDS011;15290;48.148;17.106;2022-12-18T03:38:50;35.85;;;18.33;;
27953;SDS011;15290;48.148;17.106;2022-12-18T03:46:50;35.60;;;18.23;;
27953;SDS011;15290;48.148;17.106;2022-12-18T03:49:50;36.35;;;19.10;;
27953;SDS011;15290;48.148;17.106;2022-12-18T03:54:50;37.20;;;18.30;;
27953;SDS011;15290;48.148;17.106;2022-12-18T03:57:19;37.33;;;18.70;;
27953;SDS011;15290;48.148;17.106;2022-12-18T03:59:49;38.47;;;18.85;;
27953;SDS011;15290;48.148;17.106;2022-12-18T04:02:19;35.97;;;18.55;;
27953;SDS011;15290;48.148;17.106;2022-12-18T04:04:48;36.95;;;19.35;;
27953;SDS011;15290;48.148;17.106;2022-12-18T04:07:20;37.15;;;19.45;;
27953;SDS011;15290;48.148;17.106;2022-12-18T04:09:47;37.80;;;20.25;;
27953;SDS011;15290;48.148;17.106;2022-12-18T04:12:14;37.85;;;19.08;;
27953;SDS011;15290;48.148;17.106;2022-12-18T04:14:40;37.72;;;18.10;;
27953;SDS011;15290;48.148;17.106;2022-12-18T04:17:05;36.65;;;19.48;;
27953;SDS011;15290;48.148;17.106;2022-12-18T04:19:31;41.65;;;20.00;;
27953;SDS011;15290;48.148;17.106;2022-12-18T04:21:57;41.17;;;19.02;;
27953;SDS011;15290;48.148;17.106;2022-12-18T04:24:23;40.03;;;19.52;;
27953;SDS011;15290;48.148;17.106;2022-12-18T04:26:48;37.78;;;19.67;;
27953;SDS011;15290;48.148;17.106;2022-12-18T04:29:14;39.25;;;19.77;;
27953;SDS011;15290;48.148;17.106;2022-12-18T04:31:40;37.20;;;18.17;;
27953;SDS011;15290;48.148;17.106;2022-12-18T04:34:06;39.13;;;20.20;;
27953;SDS011;15290;48.148;17.106;2022-12-18T04:36:31;40.90;;;19.90;;
27953;SDS011;15290;48.148;17.106;2022-12-18T04:38:57;46.47;;;21.75;;
27953;SDS011;15290;48.148;17.106;2022-12-18T04:41:23;39.35;;;20.50;;
27953;SDS011;15290;48.148;17.106;2022-12-18T04:43:48;38.30;;;19.35;;
27953;SDS011;15290;48.148;17.106;2022-12-18T04:46:14;38.20;;;18.15;;
27953;SDS011;15290;48.148;17.106;2022-12-18T04:48:40;37.92;;;18.75;;
27953;SDS011;15290;48.148;17.106;2022-12-18T04:51:06;39.20;;;19.55;;
27953;SDS011;15290;48.148;17.106;2022-12-18T04:53:32;40.83;;;20.55;;
27953;SDS011;15290;48.148;17.106;2022-12-18T04:56:02;40.97;;;20.83;;
27953;SDS011;15290;48.148;17.106;2022-12-18T04:58:28;41.50;;;20.08;;
27953;SDS011;15290;48.148;17.106;2022-12-18T05:00:54;39.05;;;19.88;;
27953;SDS011;15290;48.148;17.106;2022-12-18T05:03:19;40.65;;;20.13;;
27953;SDS011;15290;48.148;17.106;2022-12-18T05:05:45;43.03;;;19.92;;
27953;SDS011;15290;48.148;17.106;2022-12-18T05:08:15;39.50;;;19.05;;
27953;SDS011;15290;48.148;17.106;2022-12-18T05:10:41;43.65;;;20.42;;
27953;SDS011;15290;48.148;17.106;2022-12-18T05:13:07;36.75;;;19.25;;
27953;SDS011;15290;48.148;17.106;2022-12-18T05:15:33;41.92;;;19.75;;
27953;SDS011;15290;48.148;17.106;2022-12-18T05:18:00;42.95;;;20.13;;
27953;SDS011;15290;48.148;17.106;2022-12-18T05:20:26;38.25;;;19.50;;
27953;SDS011;15290;48.148;17.106;2022-12-18T05:22:53;38.88;;;19.48;;
27953;SDS011;15290;48.148;17.106;2022-12-18T05:25:19;39.22;;;19.95;;
27953;SDS011;15290;48.148;17.106;2022-12-18T05:27:47;42.75;;;20.10;;
27953;SDS011;15290;48.148;17.106;2022-12-18T05:30:13;40.20;;;19.08;;
27953;SDS011;15290;48.148;17.106;2022-12-18T05:32:40;41.17;;;20.38;;
27953;SDS011;15290;48.148;17.106;2022-12-18T05:35:06;40.65;;;20.48;;
27953;SDS011;15290;48.148;17.106;2022-12-18T05:37:33;38.15;;;19.42;;
27953;SDS011;15290;48.148;17.106;2022-12-18T05:39:59;39.35;;;19.77;;
27953;SDS011;15290;48.148;17.106;2022-12-18T05:42:25;40.70;;;20.35;;
27953;SDS011;15290;48.148;17.106;2022-12-18T05:44:51;35.65;;;19.08;;
27953;SDS011;15290;48.148;17.106;2022-12-18T05:47:17;40.97;;;20.33;;
27953;SDS011;15290;48.148;17.106;2022-12-18T05:49:42;44.08;;;20.00;;
27953;SDS011;15290;48.148;17.106;2022-12-18T05:52:08;39.28;;;18.85;;
27953;SDS011;15290;48.148;17.106;2022-12-18T05:54:34;40.90;;;19.67;;
27953;SDS011;15290;48.148;17.106;2022-12-18T05:57:00;39.08;;;19.73;;
27953;SDS011;15290;48.148;17.106;2022-12-18T05:59:25;39.72;;;19.55;;
27953;SDS011;15290;48.148;17.106;2022-12-18T06:01:51;41.25;;;20.00;;
27953;SDS011;15290;48.148;17.106;2022-12-18T06:04:17;39.35;;;19.30;;
27953;SDS011;15290;48.148;17.106;2022-12-18T06:06:43;39.53;;;19.40;;
27953;SDS011;15290;48.148;17.106;2022-12-18T06:09:08;44.65;;;20.30;;
27953;SDS011;15290;48.148;17.106;2022-12-18T06:11:37;38.92;;;18.10;;
27953;SDS011;15290;48.148;17.106;2022-12-18T06:14:04;41.95;;;19.00;;
27953;SDS011;15290;48.148;17.106;2022-12-18T06:16:31;43.35;;;20.52;;
27953;SDS011;15290;48.148;17.106;2022-12-18T06:18:58;39.05;;;20.10;;
27953;SDS011;15290;48.148;17.106;2022-12-18T06:21:25;42.35;;;18.92;;
27953;SDS011;15290;48.148;17.106;2022-12-18T06:23:51;41.22;;;20.55;;
27953;SDS011;15290;48.148;17.106;2022-12-18T06:26:17;44.45;;;20.45;;
27953;SDS011;15290;48.148;17.106;2022-12-18T06:28:45;42.30;;;19.67;;
27953;SDS011;15290;48.148;17.106;2022-12-18T06:31:11;41.13;;;19.60;;
27953;SDS011;15290;48.148;17.106;2022-12-18T06:33:40;39.95;;;19.90;;
27953;SDS011;15290;48.148;17.106;2022-12-18T06:36:07;43.35;;;19.83;;
27953;SDS011;15290;48.148;17.106;2022-12-18T06:38:38;40.60;;;19.98;;
27953;SDS011;15290;48.148;17.106;2022-12-18T06:41:06;44.33;;;19.48;;
27953;SDS011;15290;48.148;17.106;2022-12-18T06:43:33;46.17;;;20.50;;
27953;SDS011;15290;48.148;17.106;2022-12-18T06:46:00;39.30;;;19.25;;
27953;SDS011;15290;48.148;17.106;2022-12-18T06:48:26;40.47;;;19.42;;
27953;SDS011;15290;48.148;17.106;2022-12-18T06:50:52;41.95;;;19.10;;
27953;SDS011;15290;48.148;17.106;2022-12-18T06:53:19;38.05;;;18.75;;
27953;SDS011;15290;48.148;17.106;2022-12-18T06:55:45;39.92;;;18.42;;
27953;SDS011;15290;48.148;17.106;2022-12-18T06:58:10;41.92;;;19.77;;
27953;SDS011;15290;48.148;17.106;2022-12-18T07:00:39;38.72;;;18.30;;
27953;SDS011;15290;48.148;17.106;2022-12-18T07:03:05;44.50;;;16.55;;
27953;SDS011;15290;48.148;17.106;2022-12-18T07:05:30;39.17;;;18.55;;
27953;SDS011;15290;48.148;17.106;2022-12-18T07:07:56;41.40;;;19.00;;
27953;SDS011;15290;48.148;17.106;2022-12-18T07:10:22;39.08;;;18.75;;
27953;SDS011;15290;48.148;17.106;2022-12-18T07:12:48;40.10;;;19.85;;
27953;SDS011;15290;48.148;17.106;2022-12-18T07:15:14;42.33;;;19.33;;
27953;SDS011;15290;48.148;17.106;2022-12-18T07:17:40;46.72;;;21.23;;
27953;SDS011;15290;48.148;17.106;2022-12-18T07:20:05;40.97;;;19.98;;
27953;SDS011;15290;48.148;17.106;2022-12-18T07:22:32;39.65;;;19.27;;
27953;SDS011;15290;48.148;17.106;2022-12-18T07:24:57;38.65;;;18.10;;
27953;SDS011;15290;48.148;17.106;2022-12-18T07:27:23;39.53;;;19.02;;
27953;SDS011;15290;48.148;17.106;2022-12-18T07:29:49;42.17;;;19.27;;
27953;SDS011;15290;48.148;17.106;2022-12-18T07:32:15;40.33;;;19.30;;
27953;SDS011;15290;48.148;17.106;2022-12-18T07:34:42;43.90;;;19.67;;
27953;SDS011;15290;48.148;17.106;2022-12-18T07:37:07;39.88;;;19.25;;
27953;SDS011;15290;48.148;17.106;2022-12-18T07:39:34;39.83;;;19.00;;
27953;SDS011;15290;48.148;17.106;2022-12-18T07:41:59;40.22;;;19.65;;
27953;SDS011;15290;48.148;17.106;2022-12-18T07:44:45;42.35;;;20.27;;
27953;SDS011;15290;48.148;17.106;2022-12-18T07:47:11;43.40;;;20.63;;
27953;SDS011;15290;48.148;17.106;2022-12-18T07:49:36;40.42;;;18.20;;
27953;SDS011;15290;48.148;17.106;2022-12-18T07:52:03;41.63;;;19.58;;
27953;SDS011;15290;48.148;17.106;2022-12-18T07:54:28;39.72;;;18.98;;
27953;SDS011;15290;48.148;17.106;2022-12-18T07:56:54;38.97;;;19.65;;
27953;SDS011;15290;48.148;17.106;2022-12-18T07:59:20;42.20;;;19.00;;
27953;SDS011;15290;48.148;17.106;2022-12-18T08:01:46;38.78;;;19.58;;
27953;SDS011;15290;48.148;17.106;2022-12-18T08:04:11;39.55;;;19.35;;
27953;SDS011;15290;48.148;17.106;2022-12-18T08:06:37;42.40;;;19.70;;
27953;SDS011;15290;48.148;17.106;2022-12-18T08:09:03;39.65;;;20.02;;
27953;SDS011;15290;48.148;17.106;2022-12-18T08:11:29;39.53;;;20.42;;
27953;SDS011;15290;48.148;17.106;2022-12-18T08:13:55;41.50;;;19.98;;
27953;SDS011;15290;48.148;17.106;2022-12-18T08:16:23;44.28;;;21.58;;
27953;SDS011;15290;48.148;17.106;2022-12-18T08:18:49;46.15;;;21.75;;
27953;SDS011;15290;48.148;17.106;2022-12-18T08:21:18;45.08;;;21.80;;
27953;SDS011;15290;48.148;17.106;2022-12-18T08:23:47;44.53;;;22.33;;
27953;SDS011;15290;48.148;17.106;2022-12-18T08:26:13;40.63;;;20.35;;
27953;SDS011;15290;48.148;17.106;2022-12-18T08:28:39;44.92;;;21.02;;
27953;SDS011;15290;48.148;17.106;2022-12-18T08:31:06;42.67;;;20.58;;
27953;SDS011;15290;48.148;17.106;2022-12-18T08:33:32;45.13;;;22.33;;
27953;SDS011;15290;48.148;17.106;2022-12-18T08:35:58;46.45;;;21.80;;
27953;SDS011;15290;48.148;17.106;2022-12-18T08:38:25;45.67;;;22.90;;
27953;SDS011;15290;48.148;17.106;2022-12-18T08:40:58;44.85;;;21.20;;
27953;SDS011;15290;48.148;17.106;2022-12-18T08:43:25;44.85;;;22.48;;
27953;SDS011;15290;48.148;17.106;2022-12-18T08:46:10;45.67;;;22.55;;
27953;SDS011;15290;48.148;17.106;2022-12-18T08:48:37;46.25;;;23.10;;
27953;SDS011;15290;48.148;17.106;2022-12-18T08:51:03;46.58;;;22.80;;
27953;SDS011;15290;48.148;17.106;2022-12-18T08:53:29;48.55;;;22.63;;
27953;SDS011;15290;48.148;17.106;2022-12-18T08:55:55;46.53;;;23.27;;
27953;SDS011;15290;48.148;17.106;2022-12-18T08:58:24;47.50;;;22.77;;
27953;SDS011;15290;48.148;17.106;2022-12-18T09:00:50;48.15;;;22.65;;
27953;SDS011;15290;48.148;17.106;2022-12-18T09:03:16;46.95;;;22.65;;
27953;SDS011;15290;48.148;17.106;2022-12-18T09:05:43;46.75;;;23.15;;
27953;SDS011;15290;48.148;17.106;2022-12-18T09:08:14;48.20;;;23.05;;
27953;SDS011;15290;48.148;17.106;2022-12-18T09:10:47;45.28;;;22.92;;
27953;SDS011;15290;48.148;17.106;2022-12-18T09:13:14;51.40;;;25.15;;
27953;SDS011;15290;48.148;17.106;2022-12-18T09:15:45;45.00;;;21.42;;
27953;SDS011;15290;48.148;17.106;2022-12-18T09:18:16;40.00;;;20.98;;
27953;SDS011;15290;48.148;17.106;2022-12-18T09:20:42;45.22;;;22.30;;
27953;SDS011;15290;48.148;17.106;2022-12-18T09:23:08;46.17;;;21.48;;
27953;SDS011;15290;48.148;17.106;2022-12-18T09:25:35;51.17;;;22.75;;
27953;SDS011;15290;48.148;17.106;2022-12-18T09:28:02;45.78;;;22.08;;
27953;SDS011;15290;48.148;17.106;2022-12-18T09:30:30;46.10;;;23.02;;
27953;SDS011;15290;48.148;17.106;2022-12-18T09:32:58;45.42;;;23.02;;
27953;SDS011;15290;48.148;17.106;2022-12-18T09:35:24;46.10;;;22.13;;
27953;SDS011;15290;48.148;17.106;2022-12-18T09:37:50;41.70;;;21.45;;
27953;SDS011;15290;48.148;17.106;2022-12-18T09:40:16;46.72;;;22.13;;
27953;SDS011;15290;48.148;17.106;2022-12-18T09:42:45;43.22;;;20.60;;
27953;SDS011;15290;48.148;17.106;2022-12-18T09:45:17;45.00;;;21.63;;
27953;SDS011;15290;48.148;17.106;2022-12-18T09:47:43;46.78;;;21.65;;
27953;SDS011;15290;48.148;17.106;2022-12-18T09:52:55;44.25;;;20.88;;
27953;SDS011;15290;48.148;17.106;2022-12-18T09:55:40;44.05;;;20.90;;
27953;SDS011;15290;48.148;17.106;2022-12-18T09:58:24;40.10;;;20.65;;
27953;SDS011;15290;48.148;17.106;2022-12-18T10:01:22;48.30;;;21.63;;
27953;SDS011;15290;48.148;17.106;2022-12-18T10:03:48;42.42;;;20.80;;
27953;SDS011;15290;48.148;17.106;2022-12-18T10:06:26;43.38;;;22.02;;
27953;SDS011;15290;48.148;17.106;2022-12-18T10:12:05;40.25;;;20.15;;
27953;SDS011;15290;48.148;17.106;2022-12-18T10:14:51;38.38;;;20.00;;
27953;SDS011;15290;48.148;17.106;2022-12-18T10:18:21;44.65;;;20.75;;
27953;SDS011;15290;48.148;17.106;2022-12-18T10:20:51;46.20;;;21.40;;
27953;SDS011;15290;48.148;17.106;2022-12-18T10:28:29;46.55;;;22.77;;
27953;SDS011;15290;48.148;17.106;2022-12-18T10:30:56;48.42;;;23.27;;
27953;SDS011;15290;48.148;17.106;2022-12-18T10:33:23;48.70;;;24.15;;
27953;SDS011;15290;48.148;17.106;2022-12-18T10:35:53;53.05;;;26.92;;
27953;SDS011;15290;48.148;17.106;2022-12-18T10:38:26;45.60;;;23.90;;
27953;SDS011;15290;48.148;17.106;2022-12-18T10:40:58;46.63;;;24.25;;
27953;SDS011;15290;48.148;17.106;2022-12-18T10:43:42;44.72;;;24.10;;
27953;SDS011;15290;48.148;17.106;2022-12-18T10:46:12;43.63;;;23.13;;
27953;SDS011;15290;48.148;17.106;2022-12-18T10:51:27;44.03;;;23.58;;
27953;SDS011;15290;48.148;17.106;2022-12-18T10:54:02;45.42;;;23.23;;
27953;SDS011;15290;48.148;17.106;2022-12-18T10:56:39;44.60;;;23.58;;
27953;SDS011;15290;48.148;17.106;2022-12-18T10:59:11;44.45;;;23.40;;
27953;SDS011;15290;48.148;17.106;2022-12-18T11:01:48;43.88;;;24.85;;
27953;SDS011;15290;48.148;17.106;2022-12-18T11:07:02;41.30;;;24.15;;
27953;SDS011;15290;48.148;17.106;2022-12-18T11:09:36;46.50;;;25.52;;
27953;SDS011;15290;48.148;17.106;2022-12-18T11:12:08;46.75;;;24.83;;
27953;SDS011;15290;48.148;17.106;2022-12-18T11:14:42;46.90;;;24.00;;
27953;SDS011;15290;48.148;17.106;2022-12-18T11:17:31;49.85;;;25.58;;
27953;SDS011;15290;48.148;17.106;2022-12-18T11:20:04;47.05;;;24.70;;
27953;SDS011;15290;48.148;17.106;2022-12-18T11:22:33;48.80;;;24.98;;
27953;SDS011;15290;48.148;17.106;2022-12-18T11:25:18;42.95;;;23.88;;
27953;SDS011;15290;48.148;17.106;2022-12-18T11:27:51;43.55;;;23.35;;
27953;SDS011;15290;48.148;17.106;2022-12-18T11:35:29;45.47;;;23.77;;
27953;SDS011;15290;48.148;17.106;2022-12-18T11:38:16;40.63;;;22.02;;
27953;SDS011;15290;48.148;17.106;2022-12-18T11:44:08;41.28;;;21.98;;
27953;SDS011;15290;48.148;17.106;2022-12-18T11:46:40;45.28;;;23.13;;
27953;SDS011;15290;48.148;17.106;2022-12-18T11:49:15;39.40;;;20.23;;
27953;SDS011;15290;48.148;17.106;2022-12-18T11:51:53;40.03;;;20.65;;
27953;SDS011;15290;48.148;17.106;2022-12-18T11:54:35;36.10;;;18.73;;
27953;SDS011;15290;48.148;17.106;2022-12-18T11:57:04;41.38;;;21.90;;
27953;SDS011;15290;48.148;17.106;2022-12-18T11:59:47;38.92;;;20.55;;
27953;SDS011;15290;48.148;17.106;2022-12-18T12:11:19;54.30;;;24.98;;
27953;SDS011;15290;48.148;17.106;2022-12-18T12:14:02;41.90;;;21.27;;
27953;SDS011;15290;48.148;17.106;2022-12-18T12:19:40;39.88;;;20.58;;
27953;SDS011;15290;48.148;17.106;2022-12-18T12:28:34;41.10;;;20.58;;
27953;SDS011;15290;48.148;17.106;2022-12-18T12:34:18;43.20;;;20.65;;
27953;SDS011;15290;48.148;17.106;2022-12-18T12:39:39;39.15;;;20.98;;
27953;SDS011;15290;48.148;17.106;2022-12-18T12:42:51;45.92;;;21.15;;
27953;SDS011;15290;48.148;17.106;2022-12-18T12:45:28;40.83;;;20.42;;
27953;SDS011;15290;48.148;17.106;2022-12-18T12:48:01;44.70;;;20.00;;
27953;SDS011;15290;48.148;17.106;2022-12-18T12:50:28;40.50;;;19.58;;
27953;SDS011;15290;48.148;17.106;2022-12-18T12:52:59;39.55;;;19.23;;
27953;SDS011;15290;48.148;17.106;2022-12-18T12:55:26;39.97;;;20.67;;
27953;SDS011;15290;48.148;17.106;2022-12-18T13:03:54;34.08;;;18.73;;
27953;SDS011;15290;48.148;17.106;2022-12-18T13:09:34;40.28;;;19.17;;
27953;SDS011;15290;48.148;17.106;2022-12-18T13:15:45;40.50;;;19.77;;
27953;SDS011;15290;48.148;17.106;2022-12-18T13:18:22;38.92;;;19.35;;
27953;SDS011;15290;48.148;17.106;2022-12-18T13:34:24;41.22;;;19.92;;
27953;SDS011;15290;48.148;17.106;2022-12-18T13:36:55;37.90;;;19.23;;
27953;SDS011;15290;48.148;17.106;2022-12-18T13:39:41;37.85;;;19.60;;
27953;SDS011;15290;48.148;17.106;2022-12-18T13:44:36;34.25;;;18.70;;
27953;SDS011;15290;48.148;17.106;2022-12-18T13:50:22;33.88;;;18.90;;
27953;SDS011;15290;48.148;17.106;2022-12-18T13:52:50;35.67;;;18.58;;
27953;SDS011;15290;48.148;17.106;2022-12-18T13:55:18;40.40;;;20.00;;
27953;SDS011;15290;48.148;17.106;2022-12-18T13:57:47;41.95;;;22.15;;
27953;SDS011;15290;48.148;17.106;2022-12-18T14:02:48;36.17;;;19.60;;
27953;SDS011;15290;48.148;17.106;2022-12-18T14:05:25;36.50;;;21.60;;
27953;SDS011;15290;48.148;17.106;2022-12-18T14:07:53;38.72;;;21.15;;
27953;SDS011;15290;48.148;17.106;2022-12-18T14:10:25;36.78;;;20.77;;
27953;SDS011;15290;48.148;17.106;2022-12-18T14:12:51;40.22;;;21.65;;
27953;SDS011;15290;48.148;17.106;2022-12-18T14:17:54;42.08;;;23.08;;
27953;SDS011;15290;48.148;17.106;2022-12-18T14:20:31;42.10;;;20.83;;
27953;SDS011;15290;48.148;17.106;2022-12-18T14:22:58;39.47;;;20.48;;
27953;SDS011;15290;48.148;17.106;2022-12-18T14:25:31;36.60;;;18.95;;
27953;SDS011;15290;48.148;17.106;2022-12-18T14:28:12;39.30;;;19.75;;
27953;SDS011;15290;48.148;17.106;2022-12-18T14:30:44;37.20;;;18.52;;
27953;SDS011;15290;48.148;17.106;2022-12-18T14:35:40;39.40;;;18.38;;
27953;SDS011;15290;48.148;17.106;2022-12-18T14:40:55;36.22;;;18.90;;
27953;SDS011;15290;48.148;17.106;2022-12-18T14:43:29;36.83;;;18.50;;
27953;SDS011;15290;48.148;17.106;2022-12-18T14:45:59;39.10;;;18.85;;
27953;SDS011;15290;48.148;17.106;2022-12-18T14:48:39;41.33;;;19.67;;
27953;SDS011;15290;48.148;17.106;2022-12-18T14:51:16;41.53;;;19.98;;
27953;SDS011;15290;48.148;17.106;2022-12-18T14:53:44;38.47;;;19.20;;
27953;SDS011;15290;48.148;17.106;2022-12-18T14:56:25;37.65;;;18.30;;
27953;SDS011;15290;48.148;17.106;2022-12-18T14:58:56;36.83;;;18.75;;
27953;SDS011;15290;48.148;17.106;2022-12-18T15:01:23;38.13;;;19.33;;
27953;SDS011;15290;48.148;17.106;2022-12-18T15:03:53;39.80;;;20.30;;
27953;SDS011;15290;48.148;17.106;2022-12-18T15:06:36;49.55;;;23.85;;
27953;SDS011;15290;48.148;17.106;2022-12-18T15:09:20;55.55;;;26.80;;
27953;SDS011;15290;48.148;17.106;2022-12-18T15:11:49;52.13;;;25.67;;
27953;SDS011;15290;48.148;17.106;2022-12-18T15:14:33;52.92;;;25.98;;
27953;SDS011;15290;48.148;17.106;2022-12-18T15:17:03;56.17;;;26.65;;
27953;SDS011;15290;48.148;17.106;2022-12-18T15:19:45;54.97;;;26.55;;
27953;SDS011;15290;48.148;17.106;2022-12-18T15:22:17;54.88;;;26.35;;
27953;SDS011;15290;48.148;17.106;2022-12-18T15:24:46;59.17;;;28.00;;
27953;SDS011;15290;48.148;17.106;2022-12-18T15:27:31;57.70;;;26.45;;
27953;SDS011;15290;48.148;17.106;2022-12-18T15:32:39;58.58;;;27.02;;
27953;SDS011;15290;48.148;17.106;2022-12-18T15:35:25;57.83;;;27.52;;
27953;SDS011;15290;48.148;17.106;2022-12-18T15:37:52;58.75;;;26.83;;
27953;SDS011;15290;48.148;17.106;2022-12-18T15:40:19;55.78;;;25.70;;
27953;SDS011;15290;48.148;17.106;2022-12-18T15:42:48;61.95;;;27.88;;
27953;SDS011;15290;48.148;17.106;2022-12-18T15:45:34;57.63;;;26.83;;
27953;SDS011;15290;48.148;17.106;2022-12-18T15:48:20;56.47;;;26.83;;
27953;SDS011;15290;48.148;17.106;2022-12-18T15:50:48;58.08;;;26.98;;
27953;SDS011;15290;48.148;17.106;2022-12-18T15:53:15;53.60;;;26.15;;
27953;SDS011;15290;48.148;17.106;2022-12-18T15:55:41;59.53;;;27.10;;
27953;SDS011;15290;48.148;17.106;2022-12-18T15:58:25;54.45;;;26.20;;
27953;SDS011;15290;48.148;17.106;2022-12-18T16:00:51;57.15;;;26.42;;
27953;SDS011;15290;48.148;17.106;2022-12-18T16:03:17;53.50;;;25.98;;
27953;SDS011;15290;48.148;17.106;2022-12-18T16:05:43;54.88;;;26.63;;
27953;SDS011;15290;48.148;17.106;2022-12-18T16:08:09;51.50;;;26.05;;
27953;SDS011;15290;48.148;17.106;2022-12-18T16:10:34;57.47;;;26.90;;
27953;SDS011;15290;48.148;17.106;2022-12-18T16:13:00;53.03;;;26.50;;
27953;SDS011;15290;48.148;17.106;2022-12-18T16:15:26;57.15;;;27.10;;
27953;SDS011;15290;48.148;17.106;2022-12-18T16:17:52;52.70;;;26.13;;
27953;SDS011;15290;48.148;17.106;2022-12-18T16:20:19;53.50;;;26.25;;
27953;SDS011;15290;48.148;17.106;2022-12-18T16:22:46;53.75;;;26.50;;
27953;SDS011;15290;48.148;17.106;2022-12-18T16:25:20;53.00;;;25.92;;
27953;SDS011;15290;48.148;17.106;2022-12-18T16:27:48;53.13;;;26.00;;